createdAt,value
2023-02-13T00:00:47.430Z,9.15
2023-02-13T00:03:15.113Z,9.27
2023-02-13T00:05:42.575Z,8.88
2023-02-13T00:10:37.684Z,8.52
2023-02-13T00:13:05.299Z,8.90
2023-02-13T00:15:33.790Z,8.63
2023-02-13T00:18:02.722Z,8.13
2023-02-13T00:20:30.303Z,9.57
2023-02-13T00:22:59.351Z,9.68
2023-02-13T00:25:27.229Z,8.73
2023-02-13T00:27:54.935Z,9.07
2023-02-13T00:30:23.192Z,9.27
2023-02-13T00:32:51.964Z,9.10
2023-02-13T00:35:19.463Z,9.05
2023-02-13T00:42:41.434Z,8.93
2023-02-13T00:47:36.812Z,9.30
2023-02-13T00:50:04.797Z,9.48
2023-02-13T00:52:32.328Z,9.57
2023-02-13T00:54:59.997Z,9.10
2023-02-13T00:57:27.569Z,9.75
2023-02-13T00:59:55.076Z,9.50
2023-02-13T01:04:49.895Z,9.23
2023-02-13T01:07:19.038Z,9.85
2023-02-13T01:12:13.747Z,9.63
2023-02-13T01:14:42.714Z,8.70
2023-02-13T01:17:10.969Z,8.30
2023-02-13T01:22:09.045Z,8.77
2023-02-13T01:24:36.540Z,8.85
2023-02-13T01:29:31.674Z,8.77
2023-02-13T01:31:59.364Z,9.48
2023-02-13T01:34:29.266Z,8.57
2023-02-13T01:36:56.798Z,9.38
2023-02-13T01:39:26.264Z,9.25
2023-02-13T01:41:53.773Z,9.52
2023-02-13T01:44:56.358Z,9.75
2023-02-13T01:47:41.313Z,9.02
2023-02-13T01:50:23.154Z,9.65
2023-02-13T01:52:57.793Z,9.15
2023-02-13T01:55:27.884Z,9.85
2023-02-13T01:58:03.162Z,8.88
2023-02-13T02:00:31.247Z,9.73
2023-02-13T02:03:07.312Z,9.98
2023-02-13T02:05:36.577Z,9.75
2023-02-13T02:08:08.966Z,9.05
2023-02-13T02:10:38.144Z,9.43
2023-02-13T02:13:21.086Z,9.20
2023-02-13T02:15:50.387Z,9.70
2023-02-13T02:18:24.219Z,9.93
2023-02-13T02:21:36.973Z,9.43
2023-02-13T02:24:32.333Z,9.40
2023-02-13T02:27:10.602Z,9.25
2023-02-13T02:30:12.373Z,9.50
2023-02-13T02:32:55.314Z,10.18
2023-02-13T02:35:42.115Z,9.63
2023-02-13T02:38:46.128Z,10.52
2023-02-13T02:41:42.983Z,9.13
2023-02-13T02:44:28.804Z,9.70
2023-02-13T02:47:17.447Z,10.30
2023-02-13T02:50:00.423Z,10.60
2023-02-13T02:52:53.483Z,11.13
2023-02-13T02:55:40.133Z,10.20
2023-02-13T02:58:36.675Z,9.95
2023-02-13T03:01:26.879Z,9.40
2023-02-13T03:04:16.095Z,9.27
2023-02-13T03:06:53.088Z,8.93
2023-02-13T03:09:54.951Z,10.35
2023-02-13T03:12:45.624Z,9.10
2023-02-13T03:15:13.902Z,9.18
2023-02-13T03:21:11.364Z,9.45
2023-02-13T03:24:00.367Z,9.13
2023-02-13T03:26:50.888Z,9.02
2023-02-13T03:30:04.479Z,9.27
2023-02-13T03:32:58.903Z,10.23
2023-02-13T03:35:55.976Z,10.00
2023-02-13T03:38:27.600Z,9.80
2023-02-13T03:41:19.770Z,9.60
2023-02-13T03:44:12.322Z,10.15
2023-02-13T03:46:45.798Z,9.98
2023-02-13T03:50:02.975Z,9.60
2023-02-13T03:52:46.913Z,9.65
2023-02-13T03:55:53.297Z,9.65
2023-02-13T03:58:50.225Z,9.65
2023-02-13T04:03:56.601Z,9.25
2023-02-13T04:06:35.744Z,9.52
2023-02-13T04:09:03.311Z,9.00
2023-02-13T04:14:49.854Z,9.85
2023-02-13T04:17:26.359Z,9.80
2023-02-13T04:19:54.828Z,9.75
2023-02-13T04:22:22.187Z,10.50
2023-02-13T04:27:17.999Z,9.48
2023-02-13T04:29:45.631Z,9.55
2023-02-13T04:32:14.333Z,9.32
2023-02-13T04:34:44.372Z,9.68
2023-02-13T04:37:11.746Z,9.65
2023-02-13T04:39:39.195Z,9.35
2023-02-13T04:42:06.735Z,9.30
2023-02-13T04:44:34.202Z,9.60
2023-02-13T04:47:01.597Z,9.20
2023-02-13T04:49:29.068Z,9.95
2023-02-13T04:51:56.457Z,10.27
2023-02-13T04:56:51.141Z,9.82
2023-02-13T05:04:16.389Z,10.25
2023-02-13T05:06:44.050Z,9.90
2023-02-13T05:11:38.798Z,9.98
2023-02-13T05:24:13.618Z,9.98
2023-02-13T05:29:19.463Z,9.77
2023-02-13T05:31:48.454Z,10.80
2023-02-13T05:34:16.280Z,10.40
2023-02-13T05:36:43.797Z,10.25
2023-02-13T05:46:34.040Z,8.98
2023-02-13T05:49:03.182Z,10.63
2023-02-13T05:51:32.521Z,10.70
2023-02-13T05:54:00.119Z,10.60
2023-02-13T05:56:27.801Z,10.65
2023-02-13T05:58:56.300Z,10.05
2023-02-13T06:01:24.963Z,9.70
2023-02-13T06:03:52.461Z,10.75
2023-02-13T06:06:20.128Z,10.50
2023-02-13T06:08:47.510Z,10.25
2023-02-13T06:16:11.266Z,10.30
2023-02-13T06:18:39.402Z,10.90
2023-02-13T06:21:07.390Z,11.00
2023-02-13T06:23:34.832Z,10.82
2023-02-13T06:28:34.025Z,11.13
2023-02-13T06:31:02.184Z,10.80
2023-02-13T06:33:29.952Z,11.60
2023-02-13T06:40:52.057Z,10.50
2023-02-13T06:45:47.357Z,10.43
2023-02-13T06:48:15.183Z,11.27
2023-02-13T06:50:42.697Z,12.43
2023-02-13T06:53:10.406Z,11.77
2023-02-13T06:55:39.632Z,12.18
2023-02-13T06:58:07.307Z,11.35
2023-02-13T07:03:04.622Z,12.90
2023-02-13T07:05:33.089Z,12.52
2023-02-13T07:08:00.595Z,12.02
2023-02-13T07:15:35.449Z,12.57
2023-02-13T07:18:03.534Z,13.02
2023-02-13T07:20:31.149Z,13.60
2023-02-13T07:25:30.089Z,12.10
2023-02-13T07:28:07.379Z,12.63
2023-02-13T07:30:36.330Z,12.45
2023-02-13T07:33:05.046Z,12.07
2023-02-13T07:35:33.297Z,12.40
2023-02-13T07:38:01.027Z,11.77
2023-02-13T07:40:28.726Z,12.10
2023-02-13T07:42:57.115Z,11.80
2023-02-13T07:45:24.597Z,10.90
2023-02-13T07:50:20.339Z,10.68
2023-02-13T07:52:55.683Z,11.55
2023-02-13T07:55:23.385Z,11.45
2023-02-13T07:57:51.663Z,11.90
2023-02-13T08:00:20.243Z,12.48
2023-02-13T08:02:48.193Z,12.80
2023-02-13T08:05:15.815Z,12.48
2023-02-13T08:10:31.644Z,12.65
2023-02-13T08:12:59.584Z,12.35
2023-02-13T08:15:27.436Z,11.98
2023-02-13T08:17:54.965Z,12.50
2023-02-13T08:22:50.106Z,12.80
2023-02-13T08:25:18.986Z,13.65
2023-02-13T08:27:47.362Z,12.52
2023-02-13T08:30:17.764Z,13.30
2023-02-13T08:32:54.526Z,14.75
2023-02-13T08:35:26.713Z,13.82
2023-02-13T08:37:54.406Z,13.48
2023-02-13T08:42:52.866Z,12.35
2023-02-13T08:47:47.941Z,13.25
2023-02-13T08:50:15.444Z,13.90
2023-02-13T08:52:43.172Z,13.77
2023-02-13T08:55:10.565Z,14.32
2023-02-13T09:02:33.747Z,13.10
2023-02-13T09:05:01.314Z,15.07
2023-02-13T09:07:28.752Z,13.90
2023-02-13T09:09:56.358Z,12.82
2023-02-13T09:12:23.947Z,13.77
2023-02-13T09:17:19.886Z,13.82
2023-02-13T09:22:17.361Z,13.30
2023-02-13T09:24:44.915Z,14.65
2023-02-13T09:27:12.592Z,14.73
2023-02-13T09:29:40.135Z,14.82
2023-02-13T09:32:07.936Z,14.80
2023-02-13T09:34:35.380Z,15.35
2023-02-13T09:41:58.950Z,15.38
2023-02-13T09:44:42.234Z,15.20
2023-02-13T09:47:19.013Z,14.50
2023-02-13T09:49:57.276Z,15.60
2023-02-13T09:52:28.537Z,14.75
2023-02-13T09:54:56.185Z,14.38
2023-02-13T10:00:20.908Z,15.82
2023-02-13T10:02:57.823Z,15.45
2023-02-13T10:05:46.929Z,14.27
2023-02-13T10:08:23.500Z,14.20
2023-02-13T10:11:07.902Z,14.48
2023-02-13T10:14:08.666Z,14.32
2023-02-13T10:16:40.752Z,14.45
2023-02-13T10:19:41.469Z,14.45
2023-02-13T10:22:18.353Z,14.95
2023-02-13T10:25:08.882Z,13.80
2023-02-13T10:27:41.751Z,14.27
2023-02-13T10:30:18.460Z,14.13
2023-02-13T10:33:19.197Z,14.50
2023-02-13T10:36:02.760Z,14.02
2023-02-13T10:38:34.626Z,15.32
2023-02-13T10:41:47.516Z,13.57
2023-02-13T10:44:34.454Z,14.10
2023-02-13T10:49:38.145Z,15.20
2023-02-13T10:52:19.173Z,14.83
2023-02-13T10:54:57.505Z,14.68
2023-02-13T10:57:47.896Z,14.73
2023-02-13T11:00:20.974Z,14.52
2023-02-13T11:02:48.754Z,15.13
2023-02-13T11:05:25.582Z,15.10
2023-02-13T11:07:53.228Z,16.05
2023-02-13T11:10:26.124Z,16.52
2023-02-13T11:12:54.082Z,14.45
2023-02-13T11:15:26.136Z,15.15
2023-02-13T11:18:03.957Z,16.15
2023-02-13T11:20:41.349Z,15.95
2023-02-13T11:23:18.421Z,15.95
2023-02-13T11:26:02.912Z,15.60
2023-02-13T11:28:34.911Z,14.98
2023-02-13T11:31:24.495Z,15.75
2023-02-13T11:33:52.890Z,15.90
2023-02-13T11:36:34.314Z,15.35
2023-02-13T11:39:19.935Z,14.52
2023-02-13T11:41:50.958Z,14.23
2023-02-13T11:44:30.079Z,15.20
2023-02-13T11:47:00.648Z,14.98
2023-02-13T11:49:30.626Z,13.60
2023-02-13T11:52:01.820Z,15.18
2023-02-13T11:54:46.021Z,14.90
2023-02-13T11:57:21.089Z,14.80
2023-02-13T11:59:51.873Z,14.82
2023-02-13T12:02:50.029Z,15.27
2023-02-13T12:05:21.009Z,15.13
2023-02-13T12:07:50.836Z,14.05
2023-02-13T12:10:23.086Z,14.02
2023-02-13T12:12:56.723Z,13.80
2023-02-13T12:15:33.347Z,13.70
2023-02-13T12:18:31.229Z,13.90
2023-02-13T12:21:01.808Z,14.57
2023-02-13T12:23:47.268Z,14.35
2023-02-13T12:26:17.700Z,12.85
2023-02-13T12:29:12.824Z,13.93
2023-02-13T12:32:24.660Z,13.35
2023-02-13T12:35:27.662Z,13.23
2023-02-13T12:38:18.664Z,13.00
2023-02-13T12:41:05.393Z,12.75
2023-02-13T12:43:51.810Z,12.55
2023-02-13T12:46:31.476Z,12.50
2023-02-13T12:49:18.166Z,13.02
2023-02-13T12:51:53.396Z,13.25
2023-02-13T12:54:30.711Z,12.98
2023-02-13T12:57:20.123Z,12.77
2023-02-13T12:59:59.495Z,12.82
2023-02-13T13:03:10.322Z,12.30
2023-02-13T13:06:12.900Z,12.00
2023-02-13T13:09:22.006Z,13.15
2023-02-13T13:12:20.514Z,12.85
2023-02-13T13:15:09.771Z,12.77
2023-02-13T13:18:05.127Z,12.77
2023-02-13T13:20:37.695Z,13.05
2023-02-13T13:23:30.747Z,12.95
2023-02-13T13:25:58.282Z,12.23
2023-02-13T13:28:32.941Z,12.13
2023-02-13T13:31:02.117Z,12.70
2023-02-13T13:33:30.964Z,13.05
2023-02-13T13:36:01.118Z,12.18
2023-02-13T13:38:39.427Z,12.00
2023-02-13T13:41:31.965Z,13.05
2023-02-13T13:44:22.252Z,11.32
2023-02-13T13:47:03.037Z,12.95
2023-02-13T13:49:44.837Z,12.02
2023-02-13T13:52:20.408Z,12.05
2023-02-13T13:54:57.233Z,12.02
2023-02-13T13:57:26.044Z,12.70
2023-02-13T14:00:00.116Z,12.30
2023-02-13T14:02:48.206Z,12.90
2023-02-13T14:05:34.118Z,13.60
2023-02-13T14:08:04.345Z,13.00
2023-02-13T14:10:31.820Z,13.32
2023-02-13T14:13:02.672Z,12.00
2023-02-13T14:15:44.825Z,12.80
2023-02-13T14:18:22.934Z,12.88
2023-02-13T14:20:54.025Z,13.55
2023-02-13T14:23:30.671Z,13.30
2023-02-13T14:26:13.517Z,13.15
2023-02-13T14:29:00.026Z,12.65
2023-02-13T14:31:34.290Z,12.98
2023-02-13T14:34:23.163Z,12.95
2023-02-13T14:37:07.326Z,14.02
2023-02-13T14:39:36.130Z,13.25
2023-02-13T14:42:21.509Z,13.73
2023-02-13T14:44:51.918Z,13.70
2023-02-13T14:47:39.776Z,13.75
2023-02-13T14:50:09.319Z,14.27
2023-02-13T14:52:43.110Z,14.90
2023-02-13T14:55:34.039Z,14.02
2023-02-13T14:58:14.731Z,13.57
2023-02-13T15:00:51.549Z,14.23
2023-02-13T15:03:41.177Z,13.48
2023-02-13T15:06:21.689Z,12.90
2023-02-13T15:08:52.074Z,12.50
2023-02-13T15:11:43.017Z,13.50
2023-02-13T15:14:23.627Z,13.00
2023-02-13T15:16:58.466Z,13.25
2023-02-13T15:19:26.754Z,13.48
2023-02-13T15:22:00.733Z,12.35
2023-02-13T15:24:46.322Z,12.85
2023-02-13T15:27:26.658Z,13.55
2023-02-13T15:30:25.213Z,12.10
2023-02-13T15:33:15.851Z,11.90
2023-02-13T15:35:43.574Z,12.80
2023-02-13T15:38:31.721Z,12.20
2023-02-13T15:41:05.143Z,12.55
2023-02-13T15:43:40.509Z,11.85
2023-02-13T15:46:38.867Z,13.00
2023-02-13T15:49:10.592Z,11.75
2023-02-13T15:51:38.770Z,11.90
2023-02-13T15:54:22.144Z,13.38
2023-02-13T15:56:52.954Z,12.05
2023-02-13T15:59:21.288Z,11.27
2023-02-13T16:01:50.903Z,11.73
2023-02-13T16:04:20.659Z,11.48
2023-02-13T16:06:52.597Z,11.82
2023-02-13T16:09:38.178Z,11.30
2023-02-13T16:12:28.474Z,10.98
2023-02-13T16:15:05.863Z,10.82
2023-02-13T16:17:38.558Z,10.52
2023-02-13T16:20:12.071Z,11.65
2023-02-13T16:23:14.028Z,11.18
2023-02-13T16:25:41.842Z,11.63
2023-02-13T16:28:25.751Z,11.38
2023-02-13T16:30:53.244Z,11.43
2023-02-13T16:33:30.985Z,11.32
2023-02-13T16:36:29.273Z,12.10
2023-02-13T16:38:56.903Z,11.85
2023-02-13T16:41:29.879Z,11.93
2023-02-13T16:44:23.185Z,12.65
2023-02-13T16:47:24.374Z,12.05
2023-02-13T16:49:56.596Z,12.15
2023-02-13T16:52:26.961Z,11.75
2023-02-13T16:55:03.514Z,11.30
2023-02-13T16:57:34.351Z,12.43
2023-02-13T17:00:24.465Z,12.38
2023-02-13T17:02:53.023Z,13.57
2023-02-13T17:05:22.664Z,12.93
2023-02-13T17:07:53.326Z,12.63
2023-02-13T17:10:44.786Z,12.52
2023-02-13T17:13:19.186Z,13.77
2023-02-13T17:15:48.615Z,13.43
2023-02-13T17:18:16.169Z,14.18
2023-02-13T17:20:45.343Z,14.07
2023-02-13T17:23:18.843Z,14.43
2023-02-13T17:25:48.101Z,15.57
2023-02-13T17:28:22.476Z,15.10
2023-02-13T17:30:56.444Z,14.90
2023-02-13T17:33:27.661Z,14.65
2023-02-13T17:35:55.551Z,15.43
2023-02-13T17:38:23.598Z,15.63
2023-02-13T17:40:52.221Z,16.42
2023-02-13T17:43:20.899Z,16.88
2023-02-13T17:45:49.880Z,16.65
2023-02-13T17:48:17.962Z,17.13
2023-02-13T17:50:51.149Z,17.67
2023-02-13T17:53:27.836Z,16.40
2023-02-13T17:55:55.661Z,16.42
2023-02-13T17:58:23.312Z,18.25
2023-02-13T18:00:51.087Z,17.35
2023-02-13T18:03:18.543Z,18.00
2023-02-13T18:05:48.857Z,18.08
2023-02-13T18:08:17.157Z,17.63
2023-02-13T18:10:44.723Z,17.92
2023-02-13T18:13:12.371Z,18.38
2023-02-13T18:15:43.119Z,19.70
2023-02-13T18:18:12.005Z,19.27
2023-02-13T18:20:39.499Z,19.85
2023-02-13T18:23:07.386Z,18.88
2023-02-13T18:25:35.572Z,19.98
2023-02-13T18:28:03.312Z,19.60
2023-02-13T18:30:30.813Z,20.20
2023-02-13T18:32:59.320Z,21.15
2023-02-13T18:35:27.194Z,20.00
2023-02-13T18:37:54.692Z,20.17
2023-02-13T18:42:51.241Z,20.33
2023-02-13T18:45:18.998Z,20.77
2023-02-13T18:47:46.559Z,19.55
2023-02-13T18:50:14.106Z,20.55
2023-02-13T18:52:41.765Z,21.25
2023-02-13T18:55:09.482Z,21.35
2023-02-13T18:57:36.942Z,21.38
2023-02-13T19:02:33.507Z,20.77
2023-02-13T19:05:03.642Z,21.35
2023-02-13T19:07:31.219Z,21.17
2023-02-13T19:09:58.819Z,20.80
2023-02-13T19:12:26.557Z,21.02
2023-02-13T19:14:54.185Z,21.35
2023-02-13T19:17:21.820Z,22.65
2023-02-13T19:19:49.254Z,21.92
2023-02-13T19:22:16.846Z,21.13
2023-02-13T19:24:44.482Z,22.58
2023-02-13T19:27:12.146Z,21.85
2023-02-13T19:29:39.558Z,22.73
2023-02-13T19:32:07.032Z,21.42
2023-02-13T19:37:02.215Z,22.52
2023-02-13T19:41:57.249Z,22.30
2023-02-13T19:44:24.710Z,24.38
2023-02-13T19:46:52.239Z,23.05
2023-02-13T19:49:22.404Z,24.05
2023-02-13T19:51:49.964Z,23.58
2023-02-13T19:54:17.341Z,26.05
2023-02-13T19:56:45.062Z,24.27
2023-02-13T19:59:13.637Z,24.27
2023-02-13T20:01:42.922Z,24.23
2023-02-13T20:04:11.872Z,25.83
2023-02-13T20:06:39.658Z,24.15
2023-02-13T20:09:10.013Z,24.00
2023-02-13T20:11:39.528Z,25.42
2023-02-13T20:14:11.606Z,25.73
2023-02-13T20:16:39.407Z,24.73
2023-02-13T20:19:09.664Z,24.55
2023-02-13T20:21:38.056Z,24.83
2023-02-13T20:24:06.051Z,24.90
2023-02-13T20:26:34.706Z,25.58
2023-02-13T20:29:02.426Z,24.20
2023-02-13T20:31:30.727Z,25.23
2023-02-13T20:33:58.663Z,24.67
2023-02-13T20:36:28.783Z,24.83
2023-02-13T20:38:59.665Z,25.83
2023-02-13T20:41:29.769Z,25.92
2023-02-13T20:43:59.398Z,26.08
2023-02-13T20:46:29.315Z,26.05
2023-02-13T20:48:56.782Z,26.13
2023-02-13T20:51:24.401Z,25.88
2023-02-13T20:53:52.031Z,25.52
2023-02-13T20:56:23.544Z,25.80
2023-02-13T20:58:52.536Z,27.98
2023-02-13T21:01:24.430Z,27.27
2023-02-13T21:03:54.617Z,27.02
2023-02-13T21:06:30.717Z,26.15
2023-02-13T21:08:58.425Z,26.52
2023-02-13T21:11:28.307Z,25.60
2023-02-13T21:13:57.160Z,25.70
2023-02-13T21:16:27.930Z,25.48
2023-02-13T21:18:58.685Z,25.27
2023-02-13T21:21:29.595Z,25.02
2023-02-13T21:23:59.677Z,25.25
2023-02-13T21:26:27.725Z,25.90
2023-02-13T21:28:55.752Z,26.27
2023-02-13T21:31:30.523Z,26.08
2023-02-13T21:34:00.265Z,25.65
2023-02-13T21:36:27.725Z,25.15
2023-02-13T21:41:23.866Z,24.67
2023-02-13T21:43:51.971Z,23.90
2023-02-13T21:46:21.418Z,25.25
2023-02-13T21:48:53.594Z,23.85
2023-02-13T21:51:22.343Z,23.85
2023-02-13T21:53:50.455Z,24.13
2023-02-13T21:56:29.196Z,24.75
2023-02-13T21:58:57.586Z,22.90
2023-02-13T22:01:30.918Z,21.80
2023-02-13T22:04:09.556Z,23.00
2023-02-13T22:06:39.850Z,22.77
2023-02-13T22:09:17.653Z,21.88
2023-02-13T22:11:45.349Z,23.50
2023-02-13T22:14:17.018Z,21.70
2023-02-13T22:16:46.599Z,22.13
2023-02-13T22:19:16.155Z,22.65
2023-02-13T22:21:44.683Z,22.55
2023-02-13T22:24:13.174Z,23.13
2023-02-13T22:26:43.122Z,24.88
2023-02-13T22:29:13.189Z,25.02
2023-02-13T22:31:41.194Z,24.95
2023-02-13T22:34:12.326Z,25.13
2023-02-13T22:36:40.317Z,26.02
2023-02-13T22:39:09.681Z,25.05
2023-02-13T22:41:37.372Z,27.65
2023-02-13T22:44:05.041Z,26.10
2023-02-13T22:46:33.773Z,26.77
2023-02-13T22:49:01.446Z,26.52
2023-02-13T22:51:34.253Z,24.98
2023-02-13T22:54:02.346Z,25.77
2023-02-13T22:56:31.207Z,27.95
2023-02-13T22:58:59.332Z,26.48
2023-02-13T23:01:28.325Z,26.65
2023-02-13T23:03:56.469Z,26.80
2023-02-13T23:06:24.668Z,25.73
2023-02-13T23:08:53.757Z,25.73
2023-02-13T23:11:42.942Z,27.35
2023-02-13T23:14:11.215Z,27.52
2023-02-13T23:16:59.079Z,25.75
2023-02-13T23:19:27.730Z,24.98
2023-02-13T23:21:55.833Z,26.38
2023-02-13T23:24:24.083Z,24.98
2023-02-13T23:26:51.552Z,24.48
2023-02-13T23:29:19.152Z,26.15
2023-02-13T23:31:46.693Z,25.27
2023-02-13T23:34:14.279Z,26.42
2023-02-13T23:39:09.122Z,25.73
2023-02-13T23:44:03.705Z,25.17
2023-02-13T23:53:56.277Z,24.70
2023-02-13T23:56:25.345Z,26.05
2023-02-13T23:58:53.239Z,26.10
